KMKY

Marco Island Airport

Marco Island, Florida, USA
METAR KMKY 231456Z AUTO 10009KT 060V130 10SM FEW025 29/22 A3008 RMK AO2 SLP187 T02940217 51002
Observed Flight Rules
May-23 @ 14:56 UTC (15 minutes ago) Visual Flight Rules
Wind Visibility Clouds
100° at 9 knots 10 miles
  • Few at 2,500' AGL
Temperatures Readings
Current 29°C / 84°F
Dewpoint 22°C / 72°F
Humidity 66%
Altimeter 30.08" Hg
Pressure 1018.7 hPa
Elevation 2
METAR KMKY 231456Z AUTO 10009KT 060V130 10SM FEW025 29/22 A3008 RMK AO2 SLP187 T02940217 51002
Observed Flight Rules
May-23 @ 14:56 UTC
(15 minutes ago)
VFR
Wind Visibility
100° at 9 knots 10 miles
Clouds
  • Few at 2,500' AGL
Temperature Dewpoint
29°C / 84°F 22°C / 72°F
Humidity Altimeter Pressure
66% 30.08" Hg 1018.7 hPa